Arlington, Ohio
Current Conditions -  °F | °C
As of 11:53 PM on Friday 24 Oct 2014 (Local Time) from KFDY Reporting Station
Overcast Overcast  
Wind Chill: 45°   Ceiling: 4100
Heat Index: 48°   Visibility: 10mi
Dew Point: 44°   Wind: 6mph
Humidity: 86%   Direction: 180°S
Pressure: 29.99"   Gusts: NA
Location:  40.89°N, 83.65°W
Report Text: KFDY 250353Z AUTO 18005KT 10SM OVC041 09/07 A2999 RMK AO2 SLP152 T00890067
Loading
Personal Weather Stations






























Interactive Weather Map
Tropical Storm Tracking
New forecast layout! Learn more

10-Day Weather Forecast

Advertisements
Track Severe Weather on mobile